createdAt,value
2022-08-11T00:02:00.622Z,20.48
2022-08-11T00:04:37.309Z,22.20
2022-08-11T00:07:06.918Z,15.32
2022-08-11T00:09:40.140Z,15.60
2022-08-11T00:12:18.511Z,12.80
2022-08-11T00:14:55.516Z,13.35
2022-08-11T00:17:28.210Z,18.73
2022-08-11T00:20:16.232Z,17.40
2022-08-11T00:25:21.680Z,13.40
2022-08-11T00:27:49.680Z,10.32
2022-08-11T00:30:17.499Z,12.77
2022-08-11T00:32:54.930Z,13.85
2022-08-11T00:35:53.802Z,7.75
2022-08-11T00:38:19.371Z,13.43
2022-08-11T00:41:24.831Z,10.75
2022-08-11T00:44:26.415Z,12.17
2022-08-11T00:47:12.538Z,16.33
2022-08-11T00:49:45.711Z,9.57
2022-08-11T00:52:44.781Z,8.35
2022-08-11T00:55:41.919Z,11.70
2022-08-11T00:58:59.492Z,8.05
2022-08-11T01:01:39.000Z,8.20
2022-08-11T01:04:12.703Z,11.32
2022-08-11T01:07:06.158Z,12.45
2022-08-11T01:09:52.017Z,8.93
2022-08-11T01:12:36.532Z,8.52
2022-08-11T01:15:22.300Z,14.15
2022-08-11T01:18:28.797Z,10.27
2022-08-11T01:21:30.943Z,8.75
2022-08-11T01:24:37.146Z,11.73
2022-08-11T01:27:22.615Z,14.23
2022-08-11T01:30:15.131Z,9.43
2022-08-11T01:33:03.973Z,10.88
2022-08-11T01:38:32.923Z,9.57
2022-08-11T01:41:57.783Z,12.80
2022-08-11T01:44:40.138Z,11.52
2022-08-11T01:47:30.691Z,10.27
2022-08-11T01:50:16.887Z,9.88
2022-08-11T01:52:56.929Z,14.57
2022-08-11T01:55:43.118Z,7.63
2022-08-11T01:58:16.791Z,17.75
2022-08-11T02:01:11.588Z,10.85
2022-08-11T02:04:03.389Z,11.57
2022-08-11T02:06:54.594Z,8.98
2022-08-11T02:09:49.554Z,15.10
2022-08-11T02:12:52.653Z,9.48
2022-08-11T02:15:36.606Z,11.30
2022-08-11T02:18:54.234Z,7.45
2022-08-11T02:21:49.009Z,10.38
2022-08-11T02:24:31.999Z,9.30
2022-08-11T02:27:09.131Z,10.70
2022-08-11T02:29:51.995Z,17.73
2022-08-11T02:33:04.629Z,10.98
2022-08-11T02:35:45.766Z,11.25
2022-08-11T02:38:26.846Z,13.45
2022-08-11T02:41:31.600Z,10.27
2022-08-11T02:44:29.216Z,10.68
2022-08-11T02:47:07.444Z,9.65
2022-08-11T02:50:06.579Z,12.10
2022-08-11T02:53:20.084Z,9.43
2022-08-11T02:56:22.993Z,15.00
2022-08-11T02:59:22.295Z,9.38
2022-08-11T03:02:04.559Z,12.55
2022-08-11T03:05:12.244Z,11.80
2022-08-11T03:08:01.097Z,10.98
2022-08-11T03:13:36.939Z,9.30
2022-08-11T03:16:46.811Z,10.45
2022-08-11T03:19:38.776Z,11.48
2022-08-11T03:22:11.079Z,15.15
2022-08-11T03:24:57.999Z,8.43
2022-08-11T03:27:50.857Z,15.68
2022-08-11T03:30:33.829Z,11.98
2022-08-11T03:33:48.331Z,10.27
2022-08-11T03:36:28.209Z,8.88
2022-08-11T03:39:16.263Z,7.03
2022-08-11T03:42:16.174Z,10.95
2022-08-11T03:44:49.769Z,9.93
2022-08-11T03:47:24.226Z,11.55
2022-08-11T03:50:01.070Z,9.95
2022-08-11T03:53:05.872Z,7.85
2022-08-11T03:55:52.586Z,12.88
2022-08-11T03:59:08.676Z,15.30
2022-08-11T04:01:45.371Z,10.10
2022-08-11T04:04:35.621Z,9.18
2022-08-11T04:07:40.934Z,7.75
2022-08-11T04:10:11.677Z,6.90
2022-08-11T04:13:13.446Z,12.15
2022-08-11T04:16:13.028Z,8.02
2022-08-11T04:18:49.799Z,9.02
2022-08-11T04:21:35.864Z,7.82
2022-08-11T04:24:38.613Z,9.30
2022-08-11T04:27:37.696Z,8.25
2022-08-11T04:30:19.204Z,7.57
2022-08-11T04:32:59.202Z,9.73
2022-08-11T04:35:48.684Z,11.25
2022-08-11T04:38:49.270Z,8.00
2022-08-11T04:42:04.597Z,9.75
2022-08-11T04:44:57.223Z,11.55
2022-08-11T04:48:10.959Z,9.77
2022-08-11T04:51:32.726Z,9.55
2022-08-11T04:54:39.142Z,14.73
2022-08-11T04:57:40.885Z,9.18
2022-08-11T05:00:30.286Z,10.75
2022-08-11T05:03:22.401Z,9.00
2022-08-11T05:06:10.335Z,10.30
2022-08-11T05:08:56.413Z,7.03
2022-08-11T05:11:33.210Z,8.02
2022-08-11T05:14:31.424Z,9.60
2022-08-11T05:17:24.590Z,9.38
2022-08-11T05:20:10.974Z,9.20
2022-08-11T05:23:06.297Z,9.10
2022-08-11T05:26:09.377Z,17.63
2022-08-11T05:29:19.530Z,10.80
2022-08-11T05:32:17.871Z,9.93
2022-08-11T05:34:54.847Z,12.02
2022-08-11T05:37:34.567Z,8.63
2022-08-11T05:40:30.395Z,8.75
2022-08-11T05:43:22.313Z,10.82
2022-08-11T05:46:22.436Z,11.50
2022-08-11T05:49:10.341Z,12.05
2022-08-11T05:52:05.577Z,15.75
2022-08-11T05:55:06.066Z,13.77
2022-08-11T05:57:38.618Z,13.20
2022-08-11T06:00:20.025Z,9.43
2022-08-11T06:05:19.576Z,11.25
2022-08-11T06:07:50.084Z,18.73
2022-08-11T06:10:33.363Z,12.50
2022-08-11T06:13:02.361Z,9.35
2022-08-11T06:15:32.828Z,17.77
2022-08-11T06:18:03.011Z,10.18
2022-08-11T06:20:37.077Z,12.63
2022-08-11T06:23:07.672Z,11.10
2022-08-11T06:25:36.470Z,9.98
2022-08-11T06:28:06.833Z,14.13
2022-08-11T06:30:42.157Z,14.27
2022-08-11T06:33:33.509Z,10.40
2022-08-11T06:36:22.443Z,8.93
2022-08-11T06:39:13.672Z,8.30
2022-08-11T06:42:12.958Z,10.18
2022-08-11T06:44:58.393Z,11.32
2022-08-11T06:47:26.799Z,10.82
2022-08-11T06:50:16.867Z,7.97
2022-08-11T06:52:47.518Z,13.65
2022-08-11T06:55:57.454Z,7.07
2022-08-11T06:58:51.569Z,8.18
2022-08-11T07:01:33.330Z,7.43
2022-08-11T07:04:10.404Z,14.82
2022-08-11T07:07:12.668Z,8.38
2022-08-11T07:10:36.601Z,13.02
2022-08-11T07:13:44.949Z,13.73
2022-08-11T07:16:16.293Z,11.63
2022-08-11T07:19:05.533Z,15.80
2022-08-11T07:22:05.245Z,13.40
2022-08-11T07:25:02.476Z,9.63
2022-08-11T07:28:21.566Z,12.00
2022-08-11T07:30:54.578Z,9.20
2022-08-11T07:34:07.747Z,10.88
2022-08-11T07:36:46.145Z,9.60
2022-08-11T07:39:33.570Z,11.57
2022-08-11T07:42:08.947Z,12.77
2022-08-11T07:44:59.977Z,10.75
2022-08-11T07:47:47.420Z,8.73
2022-08-11T07:50:34.853Z,10.43
2022-08-11T07:53:04.325Z,17.20
2022-08-11T07:55:50.891Z,10.73
2022-08-11T07:58:45.468Z,13.55
2022-08-11T08:01:43.056Z,16.02
2022-08-11T08:04:35.946Z,11.40
2022-08-11T08:07:23.816Z,6.85
2022-08-11T08:10:15.866Z,14.15
2022-08-11T08:13:03.717Z,9.68
2022-08-11T08:15:50.422Z,6.30
2022-08-11T08:18:26.875Z,4.18
2022-08-11T08:21:12.013Z,8.05
2022-08-11T08:23:43.570Z,12.23
2022-08-11T08:26:32.587Z,7.05
2022-08-11T08:29:25.901Z,10.10
2022-08-11T08:31:56.658Z,6.45
2022-08-11T08:34:25.793Z,6.68
2022-08-11T08:36:53.888Z,7.72
2022-08-11T08:39:22.541Z,12.98
2022-08-11T08:41:54.805Z,8.43
2022-08-11T08:44:41.492Z,11.90
2022-08-11T08:47:37.839Z,9.90
2022-08-11T08:50:27.583Z,5.72
2022-08-11T08:53:10.704Z,6.93
2022-08-11T08:55:45.361Z,9.55
2022-08-11T08:58:15.946Z,8.90
2022-08-11T09:00:47.023Z,6.68
2022-08-11T09:03:39.872Z,6.78
2022-08-11T09:06:02.647Z,7.57
2022-08-11T09:08:32.974Z,4.93
2022-08-11T09:11:21.545Z,3.65
2022-08-11T09:14:04.795Z,4.13
2022-08-11T09:16:36.986Z,11.90
2022-08-11T09:19:05.477Z,8.30
2022-08-11T09:21:44.486Z,10.43
2022-08-11T09:24:38.035Z,4.50
2022-08-11T09:27:10.626Z,5.50
2022-08-11T09:29:39.334Z,6.55
2022-08-11T09:32:08.425Z,6.45
2022-08-11T09:34:39.220Z,5.75
2022-08-11T09:37:28.780Z,3.97
2022-08-11T09:40:31.296Z,3.60
2022-08-11T09:43:22.692Z,3.90
2022-08-11T09:45:53.298Z,7.53
2022-08-11T09:48:24.107Z,7.55
2022-08-11T09:50:55.857Z,5.38
2022-08-11T09:53:35.702Z,5.70
2022-08-11T09:56:40.459Z,6.68
2022-08-11T09:59:09.424Z,8.57
2022-08-11T10:01:49.617Z,5.30
2022-08-11T10:04:22.922Z,8.18
2022-08-11T10:07:04.205Z,7.10
2022-08-11T10:09:38.667Z,4.88
2022-08-11T10:12:14.656Z,2.30
2022-08-11T10:15:06.964Z,4.70
2022-08-11T10:17:39.693Z,3.03
2022-08-11T10:20:09.074Z,4.45
2022-08-11T10:22:55.670Z,9.30
2022-08-11T10:25:42.151Z,6.32
2022-08-11T10:28:32.744Z,4.78
2022-08-11T10:31:17.753Z,3.22
2022-08-11T10:34:02.079Z,5.80
2022-08-11T10:36:35.372Z,2.55
2022-08-11T10:39:08.504Z,6.38
2022-08-11T10:42:02.875Z,5.35
2022-08-11T10:44:41.506Z,6.40
2022-08-11T10:47:31.116Z,5.05
2022-08-11T10:50:17.823Z,5.85
2022-08-11T10:53:08.408Z,4.82
2022-08-11T10:55:58.403Z,5.53
2022-08-11T10:58:45.649Z,11.48
2022-08-11T11:01:15.023Z,3.42
2022-08-11T11:03:43.697Z,2.42
2022-08-11T11:06:44.969Z,6.28
2022-08-11T11:09:42.085Z,8.15
2022-08-11T11:12:34.559Z,4.60
2022-08-11T11:15:23.125Z,6.38
2022-08-11T11:18:04.671Z,7.03
2022-08-11T11:20:36.381Z,5.80
2022-08-11T11:23:23.692Z,10.32
2022-08-11T11:26:27.729Z,4.63
2022-08-11T11:29:33.181Z,6.75
2022-08-11T11:32:06.742Z,9.07
2022-08-11T11:35:09.078Z,2.72
2022-08-11T11:37:38.120Z,10.32
2022-08-11T11:40:14.679Z,6.10
2022-08-11T11:42:45.322Z,7.97
2022-08-11T11:45:22.822Z,5.88
2022-08-11T11:47:56.250Z,5.47
2022-08-11T11:50:31.572Z,6.78
2022-08-11T11:53:03.970Z,5.82
2022-08-11T11:55:32.938Z,5.22
2022-08-11T11:58:22.062Z,7.03
2022-08-11T12:01:11.227Z,3.75
2022-08-11T12:03:39.886Z,5.60
2022-08-11T12:08:37.905Z,6.93
2022-08-11T12:11:27.627Z,4.75
2022-08-11T12:14:02.329Z,6.70
2022-08-11T12:16:33.949Z,3.40
2022-08-11T12:19:23.037Z,7.18
2022-08-11T12:22:11.306Z,5.78
2022-08-11T12:24:58.703Z,3.92
2022-08-11T12:27:30.852Z,5.90
2022-08-11T12:30:09.114Z,6.43
2022-08-11T12:35:08.030Z,9.30
2022-08-11T12:37:43.781Z,5.47
2022-08-11T12:41:03.485Z,6.47
2022-08-11T12:43:56.920Z,7.13
2022-08-11T12:46:32.953Z,9.07
2022-08-11T12:49:30.985Z,3.90
2022-08-11T12:52:14.637Z,8.30
2022-08-11T12:54:59.165Z,4.25
2022-08-11T12:57:55.516Z,6.88
2022-08-11T13:00:44.691Z,6.05
2022-08-11T13:03:32.825Z,9.07
2022-08-11T13:06:02.926Z,7.60
2022-08-11T13:08:34.198Z,3.15
2022-08-11T13:11:21.853Z,3.72
2022-08-11T13:13:57.098Z,7.70
2022-08-11T13:16:31.683Z,7.97
2022-08-11T13:19:03.683Z,3.63
2022-08-11T13:21:32.075Z,4.05
2022-08-11T13:26:48.132Z,4.57
2022-08-11T13:29:24.366Z,5.38
2022-08-11T13:31:54.732Z,4.72
2022-08-11T13:34:26.322Z,4.32
2022-08-11T13:36:56.839Z,2.90
2022-08-11T13:39:28.708Z,3.08
2022-08-11T13:41:59.667Z,4.07
2022-08-11T13:44:30.507Z,5.50
2022-08-11T13:47:01.758Z,4.50
2022-08-11T13:49:31.579Z,3.63
2022-08-11T13:51:59.821Z,9.60
2022-08-11T13:54:33.827Z,9.73
2022-08-11T13:57:08.278Z,4.60
2022-08-11T13:59:45.281Z,3.35
2022-08-11T14:02:29.093Z,4.13
2022-08-11T14:07:36.917Z,3.47
2022-08-11T14:10:07.503Z,5.32
2022-08-11T14:12:56.132Z,4.13
2022-08-11T14:15:27.489Z,2.28
2022-08-11T14:18:03.481Z,6.65
2022-08-11T14:21:01.202Z,4.82
2022-08-11T14:23:38.815Z,3.25
2022-08-11T14:26:24.210Z,6.18
2022-08-11T14:29:04.892Z,8.38
2022-08-11T14:31:35.933Z,7.65
2022-08-11T14:34:06.568Z,4.20
2022-08-11T14:36:40.967Z,2.33
2022-08-11T14:39:18.591Z,2.60
2022-08-11T14:42:14.446Z,5.30
2022-08-11T14:45:14.066Z,1.90
2022-08-11T14:47:44.912Z,2.95
2022-08-11T14:50:15.712Z,1.55
2022-08-11T14:52:52.005Z,2.20
2022-08-11T14:55:41.324Z,5.38
2022-08-11T14:58:11.583Z,4.07
2022-08-11T15:00:41.332Z,3.30
2022-08-11T15:03:12.634Z,4.78
2022-08-11T15:05:57.157Z,6.82
2022-08-11T15:08:49.893Z,3.80
2022-08-11T15:11:39.203Z,5.03
2022-08-11T15:14:09.075Z,4.72
2022-08-11T15:17:01.691Z,4.70
2022-08-11T15:19:36.717Z,4.65
2022-08-11T15:22:29.490Z,6.65
2022-08-11T15:25:00.403Z,2.33
2022-08-11T15:27:48.501Z,5.32
2022-08-11T15:30:35.555Z,5.68
2022-08-11T15:33:27.227Z,3.45
2022-08-11T15:36:16.157Z,5.30
2022-08-11T15:39:20.923Z,3.17
2022-08-11T15:42:33.642Z,8.70
2022-08-11T15:45:24.023Z,6.85
2022-08-11T15:48:05.787Z,3.70
2022-08-11T15:50:38.874Z,2.33
2022-08-11T15:53:18.170Z,6.97
2022-08-11T15:55:48.217Z,4.03
2022-08-11T15:58:38.560Z,5.65
2022-08-11T16:01:28.054Z,3.67
2022-08-11T16:04:13.004Z,3.40
2022-08-11T16:06:51.110Z,4.82
2022-08-11T16:09:25.163Z,5.18
2022-08-11T16:12:02.767Z,5.45
2022-08-11T16:14:53.970Z,9.05
2022-08-11T16:17:25.532Z,6.63
2022-08-11T16:19:56.855Z,5.78
2022-08-11T16:22:43.139Z,3.55
2022-08-11T16:27:01.456Z,1.50
2022-08-11T16:28:17.072Z,7.65
2022-08-11T16:30:46.735Z,9.05
2022-08-11T16:33:48.526Z,3.97
2022-08-11T16:36:24.325Z,1.98
2022-08-11T16:38:54.566Z,6.20
2022-08-11T16:41:44.423Z,4.40
2022-08-11T16:44:37.797Z,6.18
2022-08-11T16:47:09.806Z,4.88
2022-08-11T16:49:52.817Z,7.35
2022-08-11T16:52:23.243Z,5.50
2022-08-11T16:54:52.742Z,2.03
2022-08-11T16:57:45.185Z,2.22
2022-08-11T17:00:16.677Z,5.40
2022-08-11T17:03:10.386Z,6.18
2022-08-11T17:06:03.568Z,9.15
2022-08-11T17:08:57.089Z,3.83
2022-08-11T17:11:51.445Z,3.78
2022-08-11T17:14:35.154Z,4.72
2022-08-11T17:17:21.189Z,4.07
2022-08-11T17:20:42.644Z,4.32
2022-08-11T17:23:01.457Z,4.85
2022-08-11T17:26:00.397Z,3.80
2022-08-11T17:28:21.565Z,3.88
2022-08-11T17:31:19.942Z,1.83
2022-08-11T17:34:12.666Z,6.93
2022-08-11T17:36:45.757Z,3.67
2022-08-11T17:39:15.406Z,3.17
2022-08-11T17:42:03.522Z,5.70
2022-08-11T17:44:52.681Z,7.25
2022-08-11T17:47:41.925Z,1.77
2022-08-11T17:50:17.621Z,2.75
2022-08-11T17:53:05.957Z,3.90
2022-08-11T17:56:11.511Z,4.80
2022-08-11T17:59:00.246Z,2.83
2022-08-11T18:01:33.910Z,4.72
2022-08-11T18:04:05.274Z,3.50
2022-08-11T18:06:35.279Z,4.85
2022-08-11T18:09:30.750Z,1.45
2022-08-11T18:12:18.633Z,6.10
2022-08-11T18:17:56.580Z,4.20
2022-08-11T18:20:43.222Z,6.68
2022-08-11T18:23:40.627Z,2.28
2022-08-11T18:26:38.940Z,5.97
2022-08-11T18:29:26.991Z,2.75
2022-08-11T18:32:21.242Z,2.20
2022-08-11T18:35:10.670Z,3.60
2022-08-11T18:38:05.360Z,4.55
2022-08-11T18:40:54.848Z,3.03
2022-08-11T18:43:44.775Z,4.45
2022-08-11T18:46:35.066Z,1.83
2022-08-11T18:50:03.711Z,6.70
2022-08-11T18:52:42.751Z,4.80
2022-08-11T18:58:23.762Z,5.13
2022-08-11T19:01:13.651Z,2.90
2022-08-11T19:04:03.794Z,3.28
2022-08-11T19:06:58.702Z,5.38
2022-08-11T19:09:46.445Z,3.50
2022-08-11T19:12:33.970Z,7.60
2022-08-11T19:15:21.269Z,4.00
2022-08-11T19:18:08.664Z,3.17
2022-08-11T19:20:55.941Z,3.13
2022-08-11T19:23:53.018Z,3.67
2022-08-11T19:26:41.171Z,2.85
2022-08-11T19:30:07.914Z,7.40
2022-08-11T19:32:35.557Z,3.83
2022-08-11T19:35:22.804Z,5.30
2022-08-11T19:38:10.512Z,4.57
2022-08-11T19:40:57.695Z,6.00
2022-08-11T19:43:45.876Z,3.42
2022-08-11T19:46:32.937Z,3.17
2022-08-11T19:49:20.614Z,7.38
2022-08-11T19:52:08.215Z,2.13
2022-08-11T19:54:56.907Z,2.70
2022-08-11T19:57:44.086Z,3.92
2022-08-11T20:00:34.991Z,3.53
2022-08-11T20:03:28.106Z,5.85
2022-08-11T20:06:20.811Z,3.53
2022-08-11T20:09:08.975Z,6.55
2022-08-11T20:12:01.601Z,7.30
2022-08-11T20:14:52.276Z,5.43
2022-08-11T20:17:42.408Z,7.10
2022-08-11T20:20:32.448Z,10.07
2022-08-11T20:23:24.543Z,13.82
2022-08-11T20:26:30.299Z,11.68
2022-08-11T20:29:18.717Z,9.45
2022-08-11T20:32:09.705Z,9.93
2022-08-11T20:34:58.795Z,12.75
2022-08-11T20:40:43.063Z,15.45
2022-08-11T20:44:06.875Z,16.75
2022-08-11T20:46:43.770Z,9.85
2022-08-11T20:49:45.067Z,19.65
2022-08-11T20:52:47.381Z,18.30
2022-08-11T20:55:45.575Z,24.35
2022-08-11T20:59:11.274Z,18.13
2022-08-11T21:01:43.872Z,15.55
2022-08-11T21:04:30.266Z,15.80
2022-08-11T21:07:28.276Z,13.43
2022-08-11T21:10:23.394Z,22.02
2022-08-11T21:13:18.044Z,27.05
2022-08-11T21:16:25.530Z,28.13
2022-08-11T21:20:00.331Z,27.50
2022-08-11T21:22:59.237Z,16.30
2022-08-11T21:26:00.988Z,16.67
2022-08-11T21:28:50.717Z,18.23
2022-08-11T21:31:38.740Z,11.98
2022-08-11T21:34:26.818Z,25.60
2022-08-11T21:37:13.593Z,21.80
2022-08-11T21:40:01.764Z,19.85
2022-08-11T21:42:51.940Z,18.17
2022-08-11T21:45:39.173Z,17.45
2022-08-11T21:48:28.792Z,18.40
2022-08-11T21:51:15.168Z,15.60
2022-08-11T21:54:02.076Z,13.48
2022-08-11T21:56:51.487Z,14.50
2022-08-11T21:59:46.290Z,15.05
2022-08-11T22:02:33.532Z,12.30
2022-08-11T22:05:19.777Z,17.27
2022-08-11T22:08:05.930Z,12.02
2022-08-11T22:10:52.046Z,14.25
2022-08-11T22:13:38.329Z,10.82
2022-08-11T22:16:24.915Z,10.02
2022-08-11T22:19:14.577Z,8.60
2022-08-11T22:22:04.113Z,10.10
2022-08-11T22:24:54.956Z,7.50
2022-08-11T22:27:42.542Z,12.32
2022-08-11T22:30:30.453Z,9.25
2022-08-11T22:33:24.387Z,8.80
2022-08-11T22:36:14.445Z,7.75
2022-08-11T22:39:04.171Z,8.38
2022-08-11T22:41:50.881Z,4.03
2022-08-11T22:44:37.163Z,8.27
2022-08-11T22:47:27.380Z,6.53
2022-08-11T22:50:22.510Z,7.57
2022-08-11T22:53:10.944Z,8.88
2022-08-11T22:55:58.996Z,11.45
2022-08-11T22:58:46.781Z,6.80
2022-08-11T23:01:37.050Z,6.50
2022-08-11T23:04:24.256Z,13.20
2022-08-11T23:07:11.344Z,5.32
2022-08-11T23:09:59.029Z,9.05
2022-08-11T23:12:47.505Z,5.75
2022-08-11T23:15:33.833Z,5.57
2022-08-11T23:18:24.622Z,4.03
2022-08-11T23:21:11.031Z,8.23
2022-08-11T23:23:57.919Z,7.75
2022-08-11T23:26:48.335Z,8.65
2022-08-11T23:29:35.372Z,9.13
2022-08-11T23:32:23.112Z,6.10
2022-08-11T23:35:38.445Z,4.57
2022-08-11T23:38:22.151Z,11.32
2022-08-11T23:41:09.375Z,4.82
2022-08-11T23:43:55.924Z,6.47
2022-08-11T23:46:44.981Z,6.47
2022-08-11T23:49:33.254Z,7.22
2022-08-11T23:52:21.254Z,5.43
2022-08-11T23:55:08.943Z,7.73
2022-08-11T23:57:55.259Z,7.63
